createdAt,value
2022-10-19T00:02:22.756Z,14.50
2022-10-19T00:04:49.647Z,14.60
2022-10-19T00:07:16.475Z,14.50
2022-10-19T00:09:44.489Z,14.50
2022-10-19T00:12:12.753Z,14.50
2022-10-19T00:14:39.500Z,14.50
2022-10-19T00:17:06.261Z,14.50
2022-10-19T00:19:32.987Z,14.60
2022-10-19T00:22:00.151Z,14.50
2022-10-19T00:24:27.043Z,14.50
2022-10-19T00:26:53.766Z,14.50
2022-10-19T00:29:20.523Z,14.90
2022-10-19T00:31:49.997Z,14.50
2022-10-19T00:34:17.038Z,14.40
2022-10-19T00:36:43.906Z,14.40
2022-10-19T00:39:15.480Z,14.50
2022-10-19T00:41:42.756Z,14.40
2022-10-19T00:44:12.398Z,14.50
2022-10-19T00:46:44.550Z,14.40
2022-10-19T00:49:16.129Z,14.40
2022-10-19T00:51:48.122Z,14.40
2022-10-19T00:54:15.869Z,14.40
2022-10-19T00:56:44.527Z,14.50
2022-10-19T00:59:13.443Z,14.30
2022-10-19T01:01:40.193Z,14.40
2022-10-19T01:04:06.881Z,14.30
2022-10-19T01:06:34.257Z,14.30
2022-10-19T01:09:01.001Z,14.30
2022-10-19T01:11:39.633Z,14.40
2022-10-19T01:14:31.217Z,14.30
2022-10-19T01:17:26.688Z,14.30
2022-10-19T01:19:59.660Z,14.30
2022-10-19T01:23:20.276Z,14.30
2022-10-19T01:26:18.960Z,14.30
2022-10-19T01:29:07.796Z,14.30
2022-10-19T01:31:47.178Z,14.30
2022-10-19T01:34:26.667Z,14.30
2022-10-19T01:37:06.642Z,14.40
2022-10-19T01:39:40.973Z,14.40
2022-10-19T01:42:28.717Z,14.30
2022-10-19T01:45:01.214Z,14.30
2022-10-19T01:47:55.696Z,14.30
2022-10-19T01:50:31.336Z,14.30
2022-10-19T01:52:59.530Z,14.30
2022-10-19T01:55:27.295Z,14.30
2022-10-19T01:58:06.126Z,14.20
2022-10-19T02:00:36.064Z,14.20
2022-10-19T02:03:04.349Z,14.10
2022-10-19T02:05:32.591Z,14.10
2022-10-19T02:08:10.160Z,13.90
2022-10-19T02:10:38.504Z,14.00
2022-10-19T02:13:06.274Z,13.90
2022-10-19T02:15:34.982Z,13.90
2022-10-19T02:18:02.889Z,13.90
2022-10-19T02:20:29.624Z,14.20
2022-10-19T02:22:56.676Z,13.80
2022-10-19T02:25:23.958Z,13.80
2022-10-19T02:27:50.665Z,14.40
2022-10-19T02:30:18.366Z,13.90
2022-10-19T02:32:45.293Z,13.70
2022-10-19T02:35:13.198Z,13.80
2022-10-19T02:37:40.524Z,13.70
2022-10-19T02:40:08.488Z,13.70
2022-10-19T02:42:47.130Z,13.70
2022-10-19T02:45:23.654Z,13.60
2022-10-19T02:48:03.684Z,13.60
2022-10-19T02:50:30.712Z,13.60
2022-10-19T02:52:58.870Z,13.70
2022-10-19T02:55:25.915Z,13.90
2022-10-19T02:57:53.723Z,13.80
2022-10-19T03:00:20.632Z,14.00
2022-10-19T03:02:48.208Z,13.90
2022-10-19T03:05:14.963Z,14.00
2022-10-19T03:07:42.289Z,14.00
2022-10-19T03:10:09.441Z,14.00
2022-10-19T03:12:36.177Z,14.10
2022-10-19T03:15:03.187Z,14.10
2022-10-19T03:17:29.892Z,14.10
2022-10-19T03:19:56.710Z,14.20
2022-10-19T03:22:23.427Z,14.20
2022-10-19T03:24:50.256Z,14.20
2022-10-19T03:27:16.954Z,14.20
2022-10-19T03:29:43.644Z,14.30
2022-10-19T03:32:10.347Z,14.20
2022-10-19T03:34:37.045Z,14.30
2022-10-19T03:37:03.735Z,14.30
2022-10-19T03:39:30.666Z,14.30
2022-10-19T03:41:57.391Z,14.30
2022-10-19T03:44:24.138Z,14.30
2022-10-19T03:46:50.881Z,14.40
2022-10-19T03:49:17.790Z,14.40
2022-10-19T03:51:44.622Z,14.50
2022-10-19T03:54:15.375Z,14.40
2022-10-19T03:56:42.656Z,14.50
2022-10-19T03:59:12.910Z,14.50
2022-10-19T04:01:42.101Z,14.50
2022-10-19T04:04:17.564Z,14.60
2022-10-19T04:06:46.520Z,14.50
2022-10-19T04:09:15.206Z,14.50
2022-10-19T04:11:42.525Z,14.60
2022-10-19T04:16:36.979Z,14.60
2022-10-19T04:19:04.037Z,14.60
2022-10-19T04:21:35.134Z,14.60
2022-10-19T04:24:07.441Z,14.60
2022-10-19T04:26:38.946Z,14.60
2022-10-19T04:29:05.742Z,14.60
2022-10-19T04:31:32.743Z,14.60
2022-10-19T04:33:59.411Z,14.60
2022-10-19T04:36:26.477Z,14.60
2022-10-19T04:38:53.200Z,14.60
2022-10-19T04:41:21.564Z,14.60
2022-10-19T04:43:49.083Z,14.60
2022-10-19T04:46:17.878Z,14.60
2022-10-19T04:48:45.646Z,14.60
2022-10-19T04:51:12.831Z,14.60
2022-10-19T04:53:40.423Z,14.60
2022-10-19T04:56:11.800Z,14.60
2022-10-19T04:58:38.584Z,14.60
2022-10-19T05:01:17.514Z,14.60
2022-10-19T05:03:44.778Z,14.60
2022-10-19T05:06:12.665Z,14.70
2022-10-19T05:08:39.418Z,15.10
2022-10-19T05:11:08.970Z,14.60
2022-10-19T05:13:36.097Z,15.10
2022-10-19T05:16:04.769Z,14.70
2022-10-19T05:18:31.841Z,14.70
2022-10-19T05:21:10.227Z,14.70
2022-10-19T05:23:37.448Z,14.70
2022-10-19T05:26:17.320Z,15.10
2022-10-19T05:28:56.210Z,14.70
2022-10-19T05:31:24.997Z,14.80
2022-10-19T05:33:51.739Z,14.70
2022-10-19T05:36:26.070Z,14.70
2022-10-19T05:38:54.435Z,14.70
2022-10-19T05:41:22.087Z,14.70
2022-10-19T05:43:52.930Z,14.70
2022-10-19T05:46:19.762Z,14.70
2022-10-19T05:48:47.001Z,14.70
2022-10-19T05:51:16.220Z,14.70
2022-10-19T05:53:42.999Z,14.70
2022-10-19T05:56:14.573Z,14.60
2022-10-19T05:58:41.263Z,14.60
2022-10-19T06:01:09.375Z,14.60
2022-10-19T06:03:36.214Z,14.70
2022-10-19T06:06:04.498Z,14.60
2022-10-19T06:08:31.189Z,14.60
2022-10-19T06:11:10.881Z,15.40
2022-10-19T06:13:38.334Z,14.70
2022-10-19T06:16:06.124Z,14.70
2022-10-19T06:18:33.171Z,14.70
2022-10-19T06:21:04.958Z,14.60
2022-10-19T06:23:32.920Z,14.60
2022-10-19T06:26:02.723Z,14.60
2022-10-19T06:28:29.481Z,14.70
2022-10-19T06:30:58.346Z,15.10
2022-10-19T06:33:26.020Z,14.60
2022-10-19T06:35:52.879Z,14.60
2022-10-19T06:38:19.706Z,14.60
2022-10-19T06:40:46.505Z,14.60
2022-10-19T06:43:13.223Z,14.60
2022-10-19T06:45:40.070Z,14.80
2022-10-19T06:48:07.823Z,14.60
2022-10-19T06:50:35.347Z,14.60
2022-10-19T06:53:02.058Z,14.70
2022-10-19T06:55:28.838Z,14.70
2022-10-19T06:57:55.553Z,14.70
2022-10-19T07:00:22.228Z,14.70
2022-10-19T07:02:48.897Z,14.70
2022-10-19T07:05:15.771Z,14.70
2022-10-19T07:07:42.534Z,14.70
2022-10-19T07:10:09.456Z,15.30
2022-10-19T07:12:36.154Z,14.70
2022-10-19T07:15:03.178Z,14.70
2022-10-19T07:17:29.893Z,14.40
2022-10-19T07:19:56.609Z,14.70
2022-10-19T07:22:27.207Z,14.80
2022-10-19T07:24:54.899Z,14.80
2022-10-19T07:27:21.659Z,14.70
2022-10-19T07:29:48.350Z,14.80
2022-10-19T07:32:15.042Z,14.90
2022-10-19T07:34:41.986Z,14.80
2022-10-19T07:37:08.691Z,14.90
2022-10-19T07:39:35.393Z,14.80
2022-10-19T07:42:02.193Z,14.90
2022-10-19T07:44:28.986Z,14.90
2022-10-19T07:46:55.786Z,14.90
2022-10-19T07:49:22.517Z,15.00
2022-10-19T07:51:53.808Z,15.10
2022-10-19T07:54:21.400Z,15.70
2022-10-19T07:56:48.131Z,15.30
2022-10-19T07:59:16.925Z,15.10
2022-10-19T08:01:44.990Z,15.50
2022-10-19T08:06:58.422Z,15.30
2022-10-19T08:09:51.617Z,15.30
2022-10-19T08:12:15.199Z,15.30
2022-10-19T08:14:42.317Z,15.40
2022-10-19T08:17:11.776Z,15.30
2022-10-19T08:19:43.091Z,15.50
2022-10-19T08:22:10.648Z,15.20
2022-10-19T08:24:37.415Z,15.20
2022-10-19T08:27:04.238Z,15.30
2022-10-19T08:29:31.733Z,15.30
2022-10-19T08:31:58.926Z,15.30
2022-10-19T08:34:25.663Z,15.40
2022-10-19T08:36:52.382Z,15.40
2022-10-19T08:39:19.086Z,15.40
2022-10-19T08:42:02.437Z,15.40
2022-10-19T08:45:10.832Z,15.40
2022-10-19T08:48:07.272Z,15.50
2022-10-19T08:50:42.714Z,15.50
2022-10-19T08:53:20.902Z,15.60
2022-10-19T08:56:04.463Z,15.60
2022-10-19T08:59:06.936Z,15.60
2022-10-19T09:01:44.524Z,15.70
2022-10-19T09:04:29.853Z,15.80
2022-10-19T09:07:15.273Z,15.80
2022-10-19T09:09:50.822Z,15.80
2022-10-19T09:12:20.558Z,15.80
2022-10-19T09:14:58.058Z,16.30
2022-10-19T09:17:25.356Z,15.80
2022-10-19T09:19:52.293Z,15.80
2022-10-19T09:22:33.267Z,15.80
2022-10-19T09:25:14.539Z,15.80
2022-10-19T09:27:43.462Z,15.80
2022-10-19T09:30:21.656Z,15.70
2022-10-19T09:33:01.787Z,15.60
2022-10-19T09:35:35.406Z,15.60
2022-10-19T09:38:03.917Z,15.60
2022-10-19T09:40:31.337Z,15.50
2022-10-19T09:42:59.233Z,15.50
2022-10-19T09:45:57.744Z,15.40
2022-10-19T09:48:35.708Z,15.50
2022-10-19T09:51:03.925Z,15.50
2022-10-19T09:53:30.690Z,15.50
2022-10-19T09:55:58.955Z,15.50
2022-10-19T09:58:32.085Z,15.60
2022-10-19T10:01:00.462Z,15.60
2022-10-19T10:03:32.701Z,15.60
2022-10-19T10:06:03.912Z,15.60
2022-10-19T10:08:33.888Z,15.70
2022-10-19T10:11:07.003Z,15.80
2022-10-19T10:13:37.914Z,15.90
2022-10-19T10:16:07.946Z,15.90
2022-10-19T10:18:57.099Z,16.00
2022-10-19T10:21:26.444Z,16.10
2022-10-19T10:24:00.689Z,16.20
2022-10-19T10:26:28.274Z,16.40
2022-10-19T10:28:57.866Z,16.40
2022-10-19T10:31:29.281Z,16.40
2022-10-19T10:34:10.766Z,16.40
2022-10-19T10:36:52.173Z,16.40
2022-10-19T10:39:18.977Z,16.20
2022-10-19T10:41:48.258Z,16.30
2022-10-19T10:44:20.022Z,16.10
2022-10-19T10:46:56.488Z,16.20
2022-10-19T10:49:37.481Z,16.20
2022-10-19T10:52:15.750Z,16.30
2022-10-19T10:55:16.061Z,16.20
2022-10-19T10:57:46.863Z,16.30
2022-10-19T11:00:21.824Z,16.30
2022-10-19T11:03:18.322Z,16.30
2022-10-19T11:05:48.333Z,16.40
2022-10-19T11:08:26.935Z,16.30
2022-10-19T11:11:04.844Z,16.30
2022-10-19T11:14:12.117Z,16.20
2022-10-19T11:16:41.210Z,16.20
2022-10-19T11:19:35.768Z,16.20
2022-10-19T11:22:17.169Z,16.10
2022-10-19T11:24:55.980Z,16.10
2022-10-19T11:27:32.077Z,16.00
2022-10-19T11:30:14.540Z,15.90
2022-10-19T11:32:53.419Z,15.80
2022-10-19T11:35:32.389Z,15.70
2022-10-19T11:38:27.420Z,15.70
2022-10-19T11:41:21.684Z,15.70
2022-10-19T11:44:13.336Z,15.80
2022-10-19T11:46:55.130Z,15.90
2022-10-19T11:49:40.501Z,16.00
2022-10-19T11:52:31.340Z,16.10
2022-10-19T11:55:07.341Z,16.20
2022-10-19T11:57:43.676Z,16.20
2022-10-19T12:00:15.418Z,16.20
2022-10-19T12:03:06.744Z,16.30
2022-10-19T12:05:54.617Z,16.20
2022-10-19T12:08:43.108Z,16.30
2022-10-19T12:11:43.836Z,16.30
2022-10-19T12:14:14.753Z,16.30
2022-10-19T12:16:49.626Z,16.30
2022-10-19T12:19:23.053Z,16.40
2022-10-19T12:21:50.960Z,16.40
2022-10-19T12:24:20.544Z,16.40
2022-10-19T12:26:48.034Z,16.30
2022-10-19T12:29:19.688Z,16.40
2022-10-19T12:31:47.153Z,16.40
2022-10-19T12:34:28.120Z,16.20
2022-10-19T12:37:09.767Z,16.30
2022-10-19T12:39:44.590Z,16.30
2022-10-19T12:42:31.642Z,16.20
2022-10-19T12:45:19.978Z,16.20
2022-10-19T12:48:15.648Z,16.30
2022-10-19T12:50:48.404Z,16.40
2022-10-19T12:53:28.281Z,16.30
2022-10-19T12:56:07.164Z,16.30
2022-10-19T12:58:47.463Z,16.20
2022-10-19T13:01:24.950Z,16.10
2022-10-19T13:04:06.151Z,16.00
2022-10-19T13:06:35.488Z,16.00
2022-10-19T13:09:08.045Z,16.10
2022-10-19T13:14:45.993Z,16.20
2022-10-19T13:17:51.854Z,16.20
2022-10-19T13:20:18.874Z,16.30
2022-10-19T13:22:51.041Z,16.30
2022-10-19T13:25:29.681Z,16.40
2022-10-19T13:28:22.589Z,16.30
2022-10-19T13:30:49.354Z,16.30
2022-10-19T13:33:28.559Z,16.30
2022-10-19T13:36:04.181Z,16.30
2022-10-19T13:38:41.513Z,16.20
2022-10-19T13:41:14.221Z,16.20
2022-10-19T13:44:06.879Z,16.20
2022-10-19T13:46:52.597Z,16.20
2022-10-19T13:49:53.510Z,16.10
2022-10-19T13:52:54.288Z,16.00
2022-10-19T13:55:48.063Z,16.00
2022-10-19T13:58:39.649Z,16.00
2022-10-19T14:01:23.787Z,16.10
2022-10-19T14:04:12.443Z,16.10
2022-10-19T14:06:56.339Z,16.10
2022-10-19T14:09:46.399Z,16.20
2022-10-19T14:12:23.765Z,16.20
2022-10-19T14:14:54.015Z,16.30
2022-10-19T14:17:27.661Z,16.20
2022-10-19T14:19:57.736Z,16.40
2022-10-19T14:22:36.158Z,16.20
2022-10-19T14:25:05.783Z,16.10
2022-10-19T14:27:33.845Z,16.10
2022-10-19T14:30:01.485Z,16.00
2022-10-19T14:32:30.073Z,16.00
2022-10-19T14:37:37.837Z,15.80
2022-10-19T14:40:08.272Z,15.70
2022-10-19T14:42:39.155Z,15.60
2022-10-19T14:45:12.572Z,15.40
2022-10-19T14:47:56.723Z,15.40
2022-10-19T14:50:28.926Z,15.30
2022-10-19T14:53:16.341Z,15.20
2022-10-19T14:55:43.350Z,15.10
2022-10-19T14:58:13.758Z,15.10
2022-10-19T15:00:40.780Z,15.70
2022-10-19T15:03:10.934Z,15.00
2022-10-19T15:05:42.033Z,15.00
2022-10-19T15:08:11.477Z,14.90
2022-10-19T15:10:45.675Z,15.00
2022-10-19T15:13:23.859Z,14.90
2022-10-19T15:15:52.584Z,14.90
2022-10-19T15:18:44.011Z,14.90
2022-10-19T15:21:14.575Z,15.90
2022-10-19T15:23:44.092Z,14.80
2022-10-19T15:26:26.856Z,14.80
2022-10-19T15:28:55.035Z,14.70
2022-10-19T15:31:25.704Z,14.70
2022-10-19T15:33:58.298Z,14.80
2022-10-19T15:36:25.752Z,14.70
2022-10-19T15:39:06.341Z,14.70
2022-10-19T15:41:45.505Z,14.70
2022-10-19T15:44:48.236Z,14.80
2022-10-19T15:47:14.978Z,14.70
2022-10-19T15:49:41.654Z,14.70
2022-10-19T15:52:16.704Z,14.60
2022-10-19T15:54:43.469Z,14.60
2022-10-19T15:57:29.584Z,14.50
2022-10-19T15:59:58.143Z,14.40
2022-10-19T16:02:25.354Z,14.30
2022-10-19T16:04:55.243Z,14.30
2022-10-19T16:07:27.259Z,14.20
2022-10-19T16:09:54.723Z,14.20
2022-10-19T16:12:22.460Z,14.10
2022-10-19T16:14:49.658Z,14.10
2022-10-19T16:17:16.719Z,14.70
2022-10-19T16:19:44.111Z,14.00
2022-10-19T16:22:12.755Z,13.90
2022-10-19T16:24:39.741Z,13.90
2022-10-19T16:27:06.688Z,13.90
2022-10-19T16:29:33.462Z,13.80
2022-10-19T16:32:00.421Z,13.80
2022-10-19T16:34:27.324Z,13.70
2022-10-19T16:36:54.476Z,13.70
2022-10-19T16:39:21.162Z,13.60
2022-10-19T16:41:47.856Z,13.60
2022-10-19T16:44:14.647Z,13.60
2022-10-19T16:46:41.407Z,14.10
2022-10-19T16:49:08.190Z,13.50
2022-10-19T16:51:37.017Z,13.50
2022-10-19T16:54:06.020Z,13.50
2022-10-19T16:56:33.437Z,13.40
2022-10-19T16:59:03.609Z,13.30
2022-10-19T17:01:31.323Z,13.30
2022-10-19T17:03:58.311Z,13.30
2022-10-19T17:06:25.595Z,13.90
2022-10-19T17:09:29.747Z,13.20
2022-10-19T17:11:40.471Z,13.20
2022-10-19T17:14:11.118Z,13.20
2022-10-19T17:16:38.517Z,13.10
2022-10-19T17:19:06.362Z,13.10
2022-10-19T17:21:37.282Z,13.10
2022-10-19T17:24:05.747Z,13.10
2022-10-19T17:26:38.820Z,13.10
2022-10-19T17:29:06.385Z,13.10
2022-10-19T17:31:33.116Z,13.40
2022-10-19T17:34:00.749Z,13.50
2022-10-19T17:36:30.709Z,12.90
2022-10-19T17:38:59.556Z,13.10
2022-10-19T17:41:27.188Z,13.00
2022-10-19T17:43:54.453Z,13.00
2022-10-19T17:46:29.476Z,13.10
2022-10-19T17:48:57.257Z,13.00
2022-10-19T17:51:29.279Z,13.00
2022-10-19T17:54:04.724Z,13.00
2022-10-19T17:56:32.053Z,13.00
2022-10-19T17:58:59.188Z,13.40
2022-10-19T18:01:26.896Z,13.00
2022-10-19T18:03:54.020Z,13.00
2022-10-19T18:06:26.312Z,12.90
2022-10-19T18:08:55.134Z,12.90
2022-10-19T18:11:24.693Z,13.20
2022-10-19T18:13:52.693Z,12.90
2022-10-19T18:16:30.913Z,12.90
2022-10-19T18:18:58.820Z,12.80
2022-10-19T18:21:28.524Z,12.90
2022-10-19T18:23:56.621Z,12.90
2022-10-19T18:26:25.342Z,12.80
2022-10-19T18:28:52.767Z,12.90
2022-10-19T18:31:25.079Z,12.80
2022-10-19T18:33:57.644Z,12.80
2022-10-19T18:36:24.775Z,12.90
2022-10-19T18:38:52.713Z,12.90
2022-10-19T18:41:19.998Z,12.90
2022-10-19T18:43:51.217Z,13.00
2022-10-19T18:46:19.634Z,13.10
2022-10-19T18:48:46.586Z,13.10
2022-10-19T18:51:15.403Z,13.20
2022-10-19T18:53:43.148Z,13.30
2022-10-19T18:56:11.776Z,13.70
2022-10-19T18:58:39.141Z,13.30
2022-10-19T19:01:14.510Z,13.30
2022-10-19T19:03:44.159Z,13.30
2022-10-19T19:06:13.748Z,13.40
2022-10-19T19:08:40.722Z,13.40
2022-10-19T19:11:11.281Z,13.40
2022-10-19T19:13:38.704Z,13.50
2022-10-19T19:16:06.103Z,13.40
2022-10-19T19:18:34.086Z,13.40
2022-10-19T19:21:05.486Z,13.90
2022-10-19T19:23:32.207Z,13.40
2022-10-19T19:25:58.915Z,13.40
2022-10-19T19:28:25.687Z,13.40
2022-10-19T19:30:52.376Z,13.40
2022-10-19T19:33:19.147Z,13.40
2022-10-19T19:35:47.709Z,13.40
2022-10-19T19:38:15.428Z,13.40
2022-10-19T19:40:44.274Z,13.40
2022-10-19T19:43:11.942Z,13.30
2022-10-19T19:45:39.632Z,13.30
2022-10-19T19:48:07.529Z,13.50
2022-10-19T19:50:34.828Z,13.30
2022-10-19T19:53:02.303Z,13.80
2022-10-19T19:55:30.441Z,13.20
2022-10-19T19:57:58.203Z,13.20
2022-10-19T20:00:25.152Z,13.20
2022-10-19T20:02:56.003Z,13.20
2022-10-19T20:05:23.268Z,13.30
2022-10-19T20:07:50.202Z,13.20
2022-10-19T20:10:17.092Z,13.20
2022-10-19T20:12:44.526Z,13.10
2022-10-19T20:15:12.440Z,13.10
2022-10-19T20:17:39.620Z,13.10
2022-10-19T20:20:07.557Z,13.10
2022-10-19T20:22:34.559Z,13.10
2022-10-19T20:25:01.383Z,13.10
2022-10-19T20:27:28.113Z,13.10
2022-10-19T20:29:58.736Z,13.10
2022-10-19T20:32:26.192Z,13.10
2022-10-19T20:34:53.389Z,13.10
2022-10-19T20:37:21.076Z,13.10
2022-10-19T20:39:48.412Z,13.00
2022-10-19T20:42:16.020Z,13.00
2022-10-19T20:44:43.615Z,13.00
2022-10-19T20:47:10.568Z,13.10
2022-10-19T20:49:37.415Z,13.10
2022-10-19T20:52:04.554Z,13.10
2022-10-19T20:54:31.368Z,13.00
2022-10-19T20:56:58.227Z,13.00
2022-10-19T20:59:27.825Z,13.00
2022-10-19T21:01:56.471Z,13.00
2022-10-19T21:04:24.789Z,13.00
2022-10-19T21:06:52.455Z,13.00
2022-10-19T21:09:21.859Z,13.00
2022-10-19T21:11:50.239Z,13.00
2022-10-19T21:14:25.305Z,13.00
2022-10-19T21:16:56.632Z,13.00
2022-10-19T21:19:25.403Z,13.00
2022-10-19T21:21:57.983Z,13.40
2022-10-19T21:24:27.214Z,12.90
2022-10-19T21:26:54.351Z,13.20
2022-10-19T21:29:21.352Z,13.00
2022-10-19T21:31:50.242Z,13.30
2022-10-19T21:34:25.063Z,12.90
2022-10-19T21:36:51.945Z,12.90
2022-10-19T21:39:19.526Z,12.90
2022-10-19T21:41:46.518Z,12.90
2022-10-19T21:44:15.026Z,12.90
2022-10-19T21:46:43.510Z,12.90
2022-10-19T21:49:13.383Z,12.90
2022-10-19T21:51:45.383Z,12.90
2022-10-19T21:54:17.467Z,12.80
2022-10-19T21:56:44.559Z,12.90
2022-10-19T21:59:12.130Z,12.90
2022-10-19T22:01:41.245Z,12.90
2022-10-19T22:04:16.358Z,12.90
2022-10-19T22:06:42.987Z,12.90
2022-10-19T22:09:14.090Z,13.10
2022-10-19T22:11:40.961Z,12.80
2022-10-19T22:14:07.937Z,12.80
2022-10-19T22:16:36.640Z,12.80
2022-10-19T22:19:05.220Z,12.80
2022-10-19T22:21:33.194Z,12.80
2022-10-19T22:24:02.785Z,12.80
2022-10-19T22:26:32.013Z,13.00
2022-10-19T22:29:00.555Z,12.70
2022-10-19T22:31:28.449Z,12.70
2022-10-19T22:33:55.182Z,12.70
2022-10-19T22:36:22.101Z,12.70
2022-10-19T22:38:48.909Z,12.70
2022-10-19T22:41:15.598Z,12.70
2022-10-19T22:43:42.312Z,12.70
2022-10-19T22:46:09.089Z,12.70
2022-10-19T22:48:36.769Z,12.70
2022-10-19T22:51:03.602Z,12.70
2022-10-19T22:53:30.323Z,12.70
2022-10-19T22:55:57.013Z,12.70
2022-10-19T22:58:23.670Z,12.70
2022-10-19T23:01:08.578Z,12.70
2022-10-19T23:03:35.653Z,12.70
2022-10-19T23:06:02.392Z,12.70
2022-10-19T23:08:29.268Z,12.60
2022-10-19T23:10:56.018Z,12.60
2022-10-19T23:13:23.021Z,12.60
2022-10-19T23:15:50.769Z,12.60
2022-10-19T23:18:17.762Z,12.50
2022-10-19T23:20:53.669Z,12.60
2022-10-19T23:23:20.373Z,12.60
2022-10-19T23:26:16.648Z,12.60
2022-10-19T23:28:46.064Z,12.50
2022-10-19T23:31:15.134Z,12.50
2022-10-19T23:33:42.919Z,12.50
2022-10-19T23:36:20.158Z,12.50
2022-10-19T23:38:48.230Z,12.50
2022-10-19T23:41:15.790Z,12.50
2022-10-19T23:43:42.727Z,12.50
2022-10-19T23:46:09.545Z,12.80
2022-10-19T23:48:37.365Z,12.50
2022-10-19T23:51:10.494Z,12.60
2022-10-19T23:53:41.086Z,12.50
2022-10-19T23:56:14.192Z,12.40
2022-10-19T23:58:40.985Z,12.40
